Time;durP1;ratioP1;P1;durP2;ratioP2;P2;SDS_P1;SDS_P2;PMS_P1;PMS_P2;Temp;Humidity;BMP_temperature;BMP_pressure;BME280_temperature;BME280_humidity;BME280_pressure;Samples;Min_cycle;Max_cycle;Signal;HPM_P1;HPM_P2
2022/05/04 00:00:46;;;;;;;;;28.25;25.25;;;;;16.73;50.07;101315.25;2079094;28;47548;-61
2022/05/04 00:01:46;;;;;;;;;30.75;26.50;;;;;16.70;50.14;101316.22;2070466;28;47118;-62
2022/05/04 00:02:47;;;;;;;;;25.75;23.75;;;;;16.68;50.07;101302.03;2070842;28;47338;-62
2022/05/04 00:03:47;;;;;;;;;28.25;28.25;;;;;16.67;50.13;101310.09;2079046;28;45839;-61
2022/05/04 00:04:48;;;;;;;;;29.50;24.50;;;;;16.67;50.61;101310.09;2078717;28;47225;-62
2022/05/04 00:05:48;;;;;;;;;23.00;22.75;;;;;16.66;50.30;101302.97;2078684;28;47636;-61
2022/05/04 00:06:49;;;;;;;;;29.00;27.00;;;;;16.65;50.31;101302.13;2079160;28;47609;-61
2022/05/04 00:07:50;;;;;;;;;29.80;28.60;;;;;16.66;50.45;101301.19;2078938;28;47783;-61
2022/05/04 00:08:50;;;;;;;;;26.25;24.25;;;;;16.63;50.73;101303.94;2079290;28;47541;-61
2022/05/04 00:09:51;;;;;;;;;31.00;27.00;;;;;16.62;50.47;101294.16;2078628;28;47624;-61
2022/05/04 00:10:51;;;;;;;;;22.25;22.25;;;;;16.61;50.53;101303.13;2078215;28;47156;-61
2022/05/04 00:11:51;;;;;;;;;29.25;28.75;;;;;16.58;50.27;101297.91;2078769;28;47444;-61
2022/05/04 00:12:52;;;;;;;;;30.25;28.25;;;;;16.57;51.02;101304.19;2078754;28;47479;-61
2022/05/04 00:13:52;;;;;;;;;29.25;26.50;;;;;16.54;50.49;101293.59;2078785;28;47608;-61
2022/05/04 00:14:53;;;;;;;;;31.25;29.00;;;;;16.55;51.03;101299.81;2079050;28;47878;-60
2022/05/04 00:15:53;;;;;;;;;33.00;29.50;;;;;16.54;50.48;101303.44;2079242;28;47455;-61
2022/05/04 00:16:54;;;;;;;;;30.25;29.00;;;;;16.53;50.65;101294.53;2079154;28;47639;-60
2022/05/04 00:17:54;;;;;;;;;22.75;21.00;;;;;16.54;51.21;101300.75;2078971;28;47492;-61
2022/05/04 00:18:55;;;;;;;;;37.00;31.00;;;;;16.54;50.50;101296.28;2078924;28;47508;-61
2022/05/04 00:19:55;;;;;;;;;33.75;31.00;;;;;16.53;51.22;101293.66;2078988;28;48250;-61
2022/05/04 00:20:57;;;;;;;;;34.25;28.50;;;;;16.52;50.54;101295.47;2078999;28;47288;-60
2022/05/04 00:21:57;;;;;;;;;29.80;25.80;;;;;16.51;50.78;101284.78;2085018;28;47874;-60
2022/05/04 00:22:57;;;;;;;;;28.50;28.50;;;;;16.49;50.55;101292.88;2084631;28;47531;-61
2022/05/04 00:23:58;;;;;;;;;23.25;22.75;;;;;16.48;51.18;101289.31;2084994;28;47471;-61
2022/05/04 00:24:58;;;;;;;;;31.00;29.00;;;;;16.46;50.92;101290.31;2076984;28;48077;-60
2022/05/04 00:25:59;;;;;;;;;30.25;24.75;;;;;16.46;50.77;101293.00;2077827;28;47319;-61
2022/05/04 00:27:00;;;;;;;;;29.25;26.75;;;;;16.44;50.82;101289.50;2079124;28;47476;-61
2022/05/04 00:28:02;;;;;;;;;33.00;30.50;;;;;16.44;51.19;101289.50;2077218;28;47677;-61
2022/05/04 00:29:02;;;;;;;;;28.00;26.20;;;;;16.42;51.24;101286.88;2079421;28;47922;-60
2022/05/04 00:30:05;;;;;;;;;32.25;29.75;;;;;16.42;51.23;101286.00;2078123;28;47727;-61
2022/05/04 00:31:05;;;;;;;;;28.00;27.40;;;;;16.42;50.65;101284.19;2076316;28;48054;-62
2022/05/04 00:32:06;;;;;;;;;26.75;25.00;;;;;16.41;50.78;101294.97;2071798;28;47417;-60
2022/05/04 00:33:06;;;;;;;;;26.20;26.20;;;;;16.39;51.23;101284.31;2076501;28;47624;-60
2022/05/04 00:34:07;;;;;;;;;30.25;29.50;;;;;16.38;51.19;101287.91;2077716;28;47688;-61
2022/05/04 00:35:08;;;;;;;;;27.50;25.50;;;;;16.38;50.80;101289.72;2079581;28;47032;-59
2022/05/04 00:36:08;;;;;;;;;34.25;31.75;;;;;16.36;51.34;101292.44;2077355;28;47465;-59
2022/05/04 00:37:09;;;;;;;;;27.50;24.75;;;;;16.37;51.27;101287.97;2078365;28;47368;-60
2022/05/04 00:38:10;;;;;;;;;31.20;27.00;;;;;16.36;51.28;101280.84;2078705;28;47432;-60
2022/05/04 00:39:10;;;;;;;;;31.50;27.50;;;;;16.36;51.06;101286.22;2077467;28;46021;-61
2022/05/04 00:40:11;;;;;;;;;25.25;23.00;;;;;16.36;50.79;101280.84;2075572;28;47086;-60
2022/05/04 00:41:12;;;;;;;;;30.60;27.60;;;;;16.35;51.34;101281.78;2071320;28;47468;-61
2022/05/04 00:42:18;;;;;;;;;27.50;27.50;;;;;16.34;51.04;101278.25;2071974;28;48200;-60
2022/05/04 00:43:23;;;;;;;;;27.40;26.20;;;;;16.34;51.33;101272.88;2079291;28;47516;-60
2022/05/04 00:44:23;;;;;;;;;29.60;28.80;;;;;16.35;51.49;101276.44;2076814;28;48508;-60
2022/05/04 00:45:24;;;;;;;;;30.25;27.00;;;;;16.36;51.03;101275.50;2077061;28;47265;-61
2022/05/04 00:46:24;;;;;;;;;33.75;29.00;;;;;16.35;51.49;101274.63;2077562;28;47675;-60
2022/05/04 00:47:24;;;;;;;;;23.50;23.00;;;;;16.36;50.87;101273.69;2073352;28;47072;-60
2022/05/04 00:48:25;;;;;;;;;35.25;29.25;;;;;16.38;51.34;101277.19;2071747;28;47625;-61
2022/05/04 00:49:26;;;;;;;;;32.75;29.00;;;;;16.35;51.37;101271.94;2069428;28;47616;-60
2022/05/04 00:50:27;;;;;;;;;32.50;31.50;;;;;16.35;51.37;101266.59;2072053;28;48167;-60
2022/05/04 00:51:27;;;;;;;;;34.60;31.60;;;;;16.36;51.33;101267.47;2079346;28;47737;-61
2022/05/04 00:52:28;;;;;;;;;33.25;29.75;;;;;16.34;50.98;101259.50;2077046;28;47543;-60
2022/05/04 00:53:28;;;;;;;;;29.25;28.00;;;;;16.34;51.02;101264.84;2076909;28;47934;-60
2022/05/04 00:54:30;;;;;;;;;33.00;30.00;;;;;16.34;51.50;101266.66;2080011;28;47885;-60
2022/05/04 00:55:30;;;;;;;;;29.00;27.40;;;;;16.34;51.23;101264.84;2072859;28;47233;-61
2022/05/04 00:56:31;;;;;;;;;27.50;25.75;;;;;16.34;51.57;101264.84;2073042;28;47884;-60
2022/05/04 00:58:56;;;;;;;;;24.60;22.60;;;;;16.32;51.08;101268.53;2075103;28;48121;-61
2022/05/04 00:59:56;;;;;;;;;33.80;30.80;;;;;16.31;51.14;101262.28;2071058;28;48113;-61
2022/05/04 01:01:00;;;;;;;;;38.25;31.00;;;;;16.31;51.08;101272.13;2071423;28;48288;-60
2022/05/04 01:02:00;;;;;;;;;29.60;26.60;;;;;16.32;51.51;101273.88;2086260;28;47810;-59
2022/05/04 01:03:01;;;;;;;;;30.75;29.00;;;;;16.33;51.11;101275.63;2088352;28;47798;-61
2022/05/04 01:04:01;;;;;;;;;35.00;31.75;;;;;16.33;51.48;101279.16;2091776;28;48035;-60
2022/05/04 01:05:02;;;;;;;;;24.00;24.00;;;;;16.32;51.28;101276.56;2091357;28;47302;-60
2022/05/04 01:06:03;;;;;;;;;27.75;26.50;;;;;16.32;51.32;101284.59;2088971;28;47778;-61
2022/05/04 01:07:04;;;;;;;;;33.80;29.80;;;;;16.29;51.48;101280.22;2092044;28;47660;-60
2022/05/04 01:08:04;;;;;;;;;28.75;27.25;;;;;16.27;51.36;101278.53;2089708;28;47612;-60
2022/05/04 01:09:05;;;;;;;;;30.00;26.75;;;;;16.26;51.34;101287.47;2090167;28;47498;-60
2022/05/04 01:10:06;;;;;;;;;30.50;28.50;;;;;16.24;51.74;101273.28;2091877;28;48343;-60
2022/05/04 01:11:07;;;;;;;;;28.60;27.80;;;;;16.23;51.24;101277.75;2088516;28;47801;-60
2022/05/04 01:12:08;;;;;;;;;29.25;26.75;;;;;16.23;51.36;101277.75;2091933;28;47808;-61
2022/05/04 01:13:09;;;;;;;;;29.60;29.40;;;;;16.22;51.72;101280.50;2091332;28;48184;-60
2022/05/04 01:14:11;;;;;;;;;26.75;24.25;;;;;16.22;51.47;101280.50;2094878;28;47662;-60
2022/05/04 01:15:12;;;;;;;;;29.40;26.60;;;;;16.19;51.33;101279.69;2092473;28;47444;-60
2022/05/04 01:16:12;;;;;;;;;31.25;28.50;;;;;16.21;51.43;101278.75;2090368;28;47587;-59
2022/05/04 01:17:13;;;;;;;;;30.00;28.00;;;;;16.19;51.55;101271.63;2089733;28;47928;-60
2022/05/04 01:18:13;;;;;;;;;30.75;29.25;;;;;16.18;51.19;101277.94;2095884;28;47912;-60
2022/05/04 01:19:15;;;;;;;;;26.00;25.50;;;;;16.17;51.66;101269.97;2093444;28;47654;-60
2022/05/04 01:20:16;;;;;;;;;28.20;27.80;;;;;16.16;51.68;101266.41;2084827;28;47494;-61
2022/05/04 01:21:17;;;;;;;;;29.80;27.80;;;;;16.15;51.76;101277.19;2092174;28;47731;-60
2022/05/04 01:22:17;;;;;;;;;27.25;25.00;;;;;16.12;51.78;101277.25;2087415;28;46903;-60
2022/05/04 01:23:18;;;;;;;;;32.75;31.00;;;;;16.10;51.59;101268.41;2092295;28;47672;-59
2022/05/04 01:24:18;;;;;;;;;29.75;29.75;;;;;16.09;51.91;101274.69;2090270;28;47893;-60
2022/05/04 01:25:19;;;;;;;;;33.25;27.75;;;;;16.05;51.29;101263.22;2080015;28;48397;-59
2022/05/04 01:26:20;;;;;;;;;31.60;29.40;;;;;16.04;51.66;101282.91;2082454;28;46058;-60
2022/05/04 01:27:21;;;;;;;;;31.00;28.60;;;;;16.03;51.94;101281.16;2085173;28;47813;-60
2022/05/04 01:28:21;;;;;;;;;27.50;26.75;;;;;16.01;51.74;101280.34;2087806;28;48247;-58
2022/05/04 01:29:21;;;;;;;;;27.00;25.75;;;;;16.01;51.93;101277.66;2087572;28;47298;-61
2022/05/04 01:30:22;;;;;;;;;32.00;29.25;;;;;16.02;51.80;101289.25;2087403;28;47810;-61
2022/05/04 01:31:23;;;;;;;;;33.00;29.00;;;;;16.01;51.66;101291.06;2087467;28;47685;-60
2022/05/04 01:32:24;;;;;;;;;31.00;30.00;;;;;16.01;51.98;101288.38;2087951;28;48095;-60
2022/05/04 01:33:24;;;;;;;;;34.80;30.60;;;;;16.02;51.89;101286.56;2087878;28;48100;-60
2022/05/04 01:34:28;;;;;;;;;32.25;28.75;;;;;16.00;51.90;101283.91;2087800;28;47314;-60
2022/05/04 01:35:28;;;;;;;;;35.80;32.20;;;;;16.00;51.94;101286.59;2087650;28;48011;-59
2022/05/04 01:36:29;;;;;;;;;31.80;29.20;;;;;15.98;51.52;101291.13;2087890;28;47413;-60
2022/05/04 01:37:29;;;;;;;;;34.00;30.50;;;;;15.98;51.75;101284.91;2087312;28;47786;-60
2022/05/04 01:38:30;;;;;;;;;30.25;27.25;;;;;15.98;51.87;101290.25;2087772;28;48137;-60
2022/05/04 01:39:30;;;;;;;;;32.00;29.25;;;;;15.98;51.95;101292.94;2087687;28;47652;-60
2022/05/04 01:40:31;;;;;;;;;35.75;30.50;;;;;15.97;51.99;101292.06;2080874;28;48111;-60
2022/05/04 01:42:50;;;;;;;;;26.60;26.00;;;;;15.94;51.82;101289.50;2087710;28;47581;-61
2022/05/04 01:43:50;;;;;;;;;37.75;31.00;;;;;15.93;51.85;101287.75;2086694;28;47750;-60
2022/05/04 01:44:51;;;;;;;;;34.25;31.00;;;;;15.92;52.08;101286.00;2087286;28;47116;-61
2022/05/04 01:45:52;;;;;;;;;29.50;27.00;;;;;15.92;51.95;101283.34;2094447;28;47127;-61
2022/05/04 01:46:52;;;;;;;;;29.00;27.75;;;;;15.92;51.97;101286.00;2094893;28;47511;-61
2022/05/04 01:47:52;;;;;;;;;34.75;31.00;;;;;15.92;52.08;101291.38;2087205;28;47481;-61
2022/05/04 01:48:53;;;;;;;;;37.50;32.00;;;;;15.92;52.24;101286.00;2087541;28;47359;-61
2022/05/04 01:49:53;;;;;;;;;35.25;30.25;;;;;15.92;52.38;101279.78;2087313;28;47935;-60
2022/05/04 01:50:54;;;;;;;;;27.25;27.25;;;;;15.93;52.14;101284.22;2087788;28;47475;-61
2022/05/04 01:51:54;;;;;;;;;36.00;31.50;;;;;15.92;51.77;101286.00;2087375;28;47556;-60
2022/05/04 01:52:54;;;;;;;;;34.50;31.50;;;;;15.93;52.38;101281.53;2087696;28;47464;-61
2022/05/04 01:53:55;;;;;;;;;32.25;30.25;;;;;15.92;52.26;101279.78;2087361;28;47910;-60
2022/05/04 01:54:56;;;;;;;;;33.75;32.00;;;;;15.93;52.05;101282.41;2087596;28;46543;-61
2022/05/04 01:55:57;;;;;;;;;33.75;30.75;;;;;15.93;51.85;101279.72;2087410;28;48088;-61
2022/05/04 01:56:58;;;;;;;;;32.80;30.60;;;;;15.95;52.21;101277.00;2087597;28;47649;-61
2022/05/04 01:57:58;;;;;;;;;34.75;29.50;;;;;15.96;52.05;101287.66;2087614;28;47511;-60
2022/05/04 01:58:59;;;;;;;;;36.75;32.00;;;;;15.97;51.94;101275.13;2087732;28;47728;-61
2022/05/04 01:59:59;;;;;;;;;27.25;26.50;;;;;15.97;52.22;101275.13;2087706;28;47636;-61
2022/05/04 02:01:01;;;;;;;;;29.25;26.00;;;;;15.97;52.33;101272.44;2087663;28;47330;-60
2022/05/04 02:02:04;;;;;;;;;29.00;29.00;;;;;15.97;52.45;101278.69;2087309;28;48071;-61
2022/05/04 02:03:05;;;;;;;;;32.60;28.60;;;;;15.97;51.92;101275.13;2087404;28;47719;-61
2022/05/04 02:04:05;;;;;;;;;31.75;30.25;;;;;15.96;51.95;101276.06;2087392;28;47546;-61
2022/05/04 02:05:06;;;;;;;;;31.00;29.00;;;;;15.97;52.01;101280.47;2087580;28;47756;-61
2022/05/04 02:06:07;;;;;;;;;31.00;29.80;;;;;15.96;52.21;101282.28;2087744;28;46123;-60
2022/05/04 02:07:09;;;;;;;;;36.25;31.75;;;;;15.95;52.10;101280.53;2087663;28;47615;-61
2022/05/04 02:08:09;;;;;;;;;31.60;29.20;;;;;15.95;52.41;101282.34;2087379;28;47955;-61
2022/05/04 02:09:10;;;;;;;;;31.00;28.50;;;;;15.94;51.93;101285.94;2087080;28;47922;-60
2022/05/04 02:10:11;;;;;;;;;26.00;26.00;;;;;15.92;52.12;101287.81;2087941;28;47978;-60
2022/05/04 02:11:12;;;;;;;;;34.80;31.20;;;;;15.91;52.19;101286.06;2087188;28;47812;-61
2022/05/04 02:12:12;;;;;;;;;31.50;29.25;;;;;15.88;52.45;101293.28;2087459;28;47836;-60
2022/05/04 02:13:13;;;;;;;;;31.25;28.00;;;;;15.88;51.92;101287.06;2087373;28;47846;-59
2022/05/04 02:14:13;;;;;;;;;37.50;32.50;;;;;15.86;51.99;101295.09;2087581;28;47662;-58
2022/05/04 02:15:14;;;;;;;;;33.25;31.00;;;;;15.86;51.99;101288.88;2087243;28;47787;-59
2022/05/04 02:16:14;;;;;;;;;31.75;29.50;;;;;15.86;51.98;101288.88;2087762;28;47513;-60
2022/05/04 02:17:15;;;;;;;;;34.25;31.25;;;;;15.86;52.38;101291.56;2087345;28;47288;-61
2022/05/04 02:18:15;;;;;;;;;37.75;31.75;;;;;15.85;52.33;101285.34;2087448;28;47030;-61
2022/05/04 02:19:15;;;;;;;;;37.00;33.00;;;;;15.87;52.31;101285.28;2087182;28;47836;-59
2022/05/04 02:20:16;;;;;;;;;32.75;30.00;;;;;15.88;52.28;101287.06;2087396;28;47369;-60
2022/05/04 02:21:17;;;;;;;;;28.50;26.75;;;;;15.87;52.65;101285.28;2095904;28;47106;-61
2022/05/04 02:22:18;;;;;;;;;30.75;28.75;;;;;15.87;52.53;101279.91;2103726;28;47276;-61
2022/05/04 02:23:18;;;;;;;;;38.20;32.20;;;;;15.87;52.66;101282.59;2093172;28;48049;-60
2022/05/04 02:24:18;;;;;;;;;35.25;29.25;;;;;15.87;52.04;101277.25;2093873;28;48367;-61
2022/05/04 02:25:19;;;;;;;;;34.00;30.50;;;;;15.87;52.24;101271.88;2095016;28;47516;-60
2022/05/04 02:26:19;;;;;;;;;33.75;31.00;;;;;15.88;52.64;101279.03;2093030;28;48051;-60
2022/05/04 02:27:20;;;;;;;;;38.00;32.75;;;;;15.88;52.10;101276.34;2095844;28;45004;-60
2022/05/04 02:28:20;;;;;;;;;34.50;31.00;;;;;15.87;52.10;101272.75;2091810;28;45931;-60
2022/05/04 02:29:21;;;;;;;;;32.00;30.75;;;;;15.87;52.13;101277.25;2094725;28;47501;-60
2022/05/04 02:30:22;;;;;;;;;36.80;31.00;;;;;15.87;52.05;101271.88;2094692;28;47459;-60
2022/05/04 02:31:22;;;;;;;;;35.75;31.00;;;;;15.87;52.06;101275.44;2088889;28;47754;-60
2022/05/04 02:32:22;;;;;;;;;37.25;31.00;;;;;15.88;52.08;101271.88;2088683;28;48015;-61
2022/05/04 02:33:23;;;;;;;;;31.50;27.50;;;;;15.86;52.56;101273.69;2094569;28;47646;-60
2022/05/04 02:34:26;;;;;;;;;33.75;29.00;;;;;15.86;52.68;101270.16;2090913;28;47783;-61
2022/05/04 02:38:04;;;;;;;;;38.60;32.20;;;;;15.83;52.38;101278.28;2091702;28;47650;-58
2022/05/04 02:39:05;;;;;;;;;27.00;24.75;;;;;15.82;52.21;101272.06;2093107;28;47227;-59
2022/05/04 02:40:06;;;;;;;;;34.50;31.25;;;;;15.83;52.46;101275.63;2093160;28;47508;-59
2022/05/04 02:41:06;;;;;;;;;32.00;30.60;;;;;15.83;52.65;101268.47;2092232;28;47671;-59
2022/05/04 02:42:07;;;;;;;;;30.75;28.50;;;;;15.84;52.51;101272.00;2085182;28;47797;-60
2022/05/04 02:43:07;;;;;;;;;32.00;29.75;;;;;15.83;52.09;101270.25;2087814;28;47652;-60
2022/05/04 02:44:08;;;;;;;;;30.25;29.00;;;;;15.83;52.54;101278.28;2092897;28;47778;-60
2022/05/04 02:45:10;;;;;;;;;35.50;30.50;;;;;15.82;52.75;101273.88;2094908;28;47372;-60
2022/05/04 02:46:16;;;;;;;;;36.00;31.60;;;;;15.81;52.53;101277.47;2093928;28;46245;-59
2022/05/04 02:47:16;;;;;;;;;34.20;31.40;;;;;15.80;52.53;101276.59;2089458;28;48066;-61
2022/05/04 02:48:17;;;;;;;;;31.00;29.25;;;;;15.79;52.67;101271.31;2087593;28;47387;-61
2022/05/04 02:49:18;;;;;;;;;30.75;30.25;;;;;15.78;52.30;101277.59;2093255;28;47436;-61
2022/05/04 02:50:18;;;;;;;;;31.40;30.60;;;;;15.74;52.58;101271.44;2087560;28;47461;-61
2022/05/04 02:51:19;;;;;;;;;35.00;31.50;;;;;15.72;52.49;101275.09;2087175;28;47702;-61
2022/05/04 02:52:19;;;;;;;;;29.25;25.75;;;;;15.71;52.66;101274.22;2091878;28;47531;-61
2022/05/04 02:53:19;;;;;;;;;31.50;30.00;;;;;15.71;52.32;101268.00;2085205;28;47655;-61
2022/05/04 02:54:20;;;;;;;;;34.00;30.00;;;;;15.71;52.51;101268.88;2079158;28;47841;-58
2022/05/04 02:55:20;;;;;;;;;29.50;24.25;;;;;15.71;52.78;101273.34;2090272;28;48140;-60
2022/05/04 02:56:20;;;;;;;;;29.75;29.50;;;;;15.69;52.82;101273.41;2095603;28;47619;-58
2022/05/04 02:57:21;;;;;;;;;29.00;28.25;;;;;15.68;52.58;101269.00;2093469;28;48050;-60
2022/05/04 02:58:21;;;;;;;;;28.25;26.25;;;;;15.68;52.85;101268.13;2093007;28;47179;-61
2022/05/04 02:59:22;;;;;;;;;32.00;29.00;;;;;15.66;52.72;101268.16;2090461;28;47234;-60
2022/05/04 03:00:22;;;;;;;;;33.75;31.50;;;;;15.64;52.68;101267.34;2086679;28;47498;-61
2022/05/04 03:02:42;;;;;;;;;34.40;31.80;;;;;15.60;53.03;101266.56;2090582;28;47535;-60
2022/05/04 03:03:42;;;;;;;;;30.50;29.25;;;;;15.58;52.57;101263.03;2092537;28;47609;-61
2022/05/04 03:04:43;;;;;;;;;25.50;24.00;;;;;15.56;52.92;101262.22;2088586;28;47382;-61
2022/05/04 03:05:43;;;;;;;;;30.00;29.25;;;;;15.55;52.93;101263.16;2092116;28;47199;-61
2022/05/04 03:06:44;;;;;;;;;36.75;32.75;;;;;15.54;52.40;101261.41;2092623;28;47652;-61
2022/05/04 03:07:44;;;;;;;;;29.00;26.00;;;;;15.54;52.53;101256.03;2088646;28;47273;-60
2022/05/04 03:08:45;;;;;;;;;27.25;23.25;;;;;15.52;52.99;101260.56;2092767;28;47385;-60
2022/05/04 03:09:45;;;;;;;;;32.75;29.50;;;;;15.49;53.02;101259.78;2091004;28;47603;-60
2022/05/04 03:12:05;;;;;;;;;32.20;30.40;;;;;15.46;52.75;101252.75;2093795;28;48361;-60
2022/05/04 03:13:06;;;;;;;;;30.40;27.60;;;;;15.46;52.95;101260.75;2093626;28;47759;-61
2022/05/04 03:14:09;;;;;;;;;36.50;32.00;;;;;15.46;53.20;101259.91;2089457;28;47917;-60
2022/05/04 03:15:10;;;;;;;;;31.00;28.60;;;;;15.45;52.96;101261.69;2090419;28;47594;-60
2022/05/04 03:16:10;;;;;;;;;30.40;29.40;;;;;15.46;53.01;101262.56;2090821;28;47283;-59
2022/05/04 03:17:11;;;;;;;;;34.75;32.00;;;;;15.46;53.10;101262.56;2096968;28;47510;-60
2022/05/04 03:18:11;;;;;;;;;34.00;30.25;;;;;15.48;52.92;101263.38;2095851;28;47856;-60
2022/05/04 03:19:12;;;;;;;;;34.50;31.25;;;;;15.47;52.82;101261.63;2095873;28;47733;-61
2022/05/04 03:20:12;;;;;;;;;35.25;32.00;;;;;15.46;53.24;101263.44;2087984;28;47244;-60
2022/05/04 03:21:13;;;;;;;;;33.75;29.25;;;;;15.45;53.29;101260.81;2083833;28;46137;-59
2022/05/04 03:22:13;;;;;;;;;35.00;31.50;;;;;15.44;53.29;101259.94;2088100;28;47906;-58
2022/05/04 03:23:14;;;;;;;;;35.25;31.50;;;;;15.44;52.86;101259.94;2093863;28;47533;-60
2022/05/04 03:24:14;;;;;;;;;36.75;32.25;;;;;15.44;53.13;101254.59;2090696;28;47372;-60
2022/05/04 03:25:15;;;;;;;;;37.25;30.75;;;;;15.44;52.96;101256.41;2090722;28;47341;-61
2022/05/04 03:26:17;;;;;;;;;36.00;32.60;;;;;15.42;53.13;101253.78;2092497;28;47920;-59
2022/05/04 03:27:17;;;;;;;;;37.20;32.20;;;;;15.42;53.16;101260.94;2088422;28;48073;-60
2022/05/04 03:28:17;;;;;;;;;34.50;31.75;;;;;15.41;52.96;101254.72;2090168;28;47061;-62
2022/05/04 03:29:18;;;;;;;;;32.75;30.00;;;;;15.41;53.06;101249.34;2088550;28;47698;-60
2022/05/04 03:30:18;;;;;;;;;28.50;27.75;;;;;15.41;53.38;101246.69;2088377;28;47196;-60
2022/05/04 03:31:19;;;;;;;;;39.50;33.75;;;;;15.41;52.80;101252.03;2088599;28;47551;-59
2022/05/04 03:32:19;;;;;;;;;32.75;30.50;;;;;15.40;53.19;101250.28;2088077;28;47433;-61
2022/05/04 03:33:20;;;;;;;;;33.25;29.25;;;;;15.40;53.09;101252.09;2088473;28;47943;-60
2022/05/04 03:34:20;;;;;;;;;34.25;30.50;;;;;15.39;53.21;101253.00;2088277;28;47651;-60
2022/05/04 03:35:21;;;;;;;;;32.00;30.00;;;;;15.39;52.82;101253.88;2088631;28;45780;-61
2022/05/04 03:36:22;;;;;;;;;34.20;31.00;;;;;15.38;53.30;101257.50;2088139;28;46597;-61
2022/05/04 03:37:23;;;;;;;;;39.75;31.75;;;;;15.36;52.82;101251.28;2088615;28;47455;-59
2022/05/04 03:38:23;;;;;;;;;31.75;30.00;;;;;15.37;53.09;101246.81;2088103;28;47737;-60
2022/05/04 03:39:23;;;;;;;;;35.50;31.25;;;;;15.35;52.78;101246.88;2088217;28;47495;-60
2022/05/04 03:40:24;;;;;;;;;35.00;31.50;;;;;15.34;53.01;101249.59;2098683;28;47628;-61
2022/05/04 03:41:25;;;;;;;;;27.50;25.50;;;;;15.34;53.20;101246.94;2102744;28;47669;-60
2022/05/04 03:42:25;;;;;;;;;41.20;35.00;;;;;15.34;53.27;101253.16;2088180;28;48152;-59
2022/05/04 03:43:26;;;;;;;;;33.00;29.25;;;;;15.35;53.01;101248.66;2088287;28;47393;-60
2022/05/04 03:44:27;;;;;;;;;37.50;33.00;;;;;15.34;52.66;101250.47;2088168;28;47444;-61
2022/05/04 03:45:28;;;;;;;;;37.60;32.20;;;;;15.33;53.15;101251.41;2088428;28;47670;-60
2022/05/04 03:46:40;;;;;;;;;35.50;30.25;;;;;15.32;53.04;101253.19;2088248;28;46446;-60
2022/05/04 03:47:40;;;;;;;;;36.20;32.60;;;;;15.31;53.13;101248.78;2088365;28;48181;-60
2022/05/04 03:48:41;;;;;;;;;33.00;30.00;;;;;15.30;53.20;101249.72;2086936;28;48204;-60
2022/05/04 03:49:42;;;;;;;;;36.80;31.60;;;;;15.29;53.19;101242.63;2087383;28;47302;-60
2022/05/04 03:50:45;;;;;;;;;32.50;31.25;;;;;15.29;52.99;101252.44;2088147;28;47846;-61
2022/05/04 03:51:45;;;;;;;;;34.80;31.20;;;;;15.27;53.28;101252.50;2088185;28;47979;-60
2022/05/04 03:52:46;;;;;;;;;32.25;31.00;;;;;15.26;53.00;101247.19;2088275;28;45963;-61
2022/05/04 03:53:47;;;;;;;;;35.75;32.00;;;;;15.26;53.09;101248.06;2088573;28;47428;-61
2022/05/04 03:54:47;;;;;;;;;34.20;30.80;;;;;15.26;53.47;101248.06;2088331;28;47777;-62
2022/05/04 03:55:52;;;;;;;;;32.75;30.75;;;;;15.26;53.26;101248.06;2088191;28;47640;-61
2022/05/04 03:56:53;;;;;;;;;32.60;30.60;;;;;15.27;53.34;101251.63;2088401;28;48105;-61
2022/05/04 03:57:53;;;;;;;;;39.00;34.50;;;;;15.26;53.35;101250.75;2088126;28;46762;-61
2022/05/04 03:58:53;;;;;;;;;38.00;32.50;;;;;15.27;52.95;101257.84;2093586;28;47539;-61
2022/05/04 03:59:54;;;;;;;;;38.25;34.50;;;;;15.27;53.23;101246.25;2087307;28;47550;-61
2022/05/04 04:00:54;;;;;;;;;30.25;27.25;;;;;15.27;53.21;101248.94;2087652;28;48041;-61
2022/05/04 04:01:55;;;;;;;;;37.50;32.50;;;;;15.25;53.14;101249.00;2087755;28;47589;-61
2022/05/04 04:02:55;;;;;;;;;33.00;29.50;;;;;15.23;52.90;101253.50;2087444;28;47654;-61
2022/05/04 04:03:56;;;;;;;;;32.50;30.50;;;;;15.23;52.94;101244.59;2074965;28;48131;-61
2022/05/04 04:04:56;;;;;;;;;42.00;33.50;;;;;15.20;53.17;101244.69;2085590;28;47976;-61
2022/05/04 04:05:57;;;;;;;;;40.50;32.75;;;;;15.20;52.91;101245.56;2087813;28;47451;-61
2022/05/04 04:06:57;;;;;;;;;30.25;28.25;;;;;15.20;53.10;101245.56;2087587;28;47424;-61
2022/05/04 04:07:58;;;;;;;;;34.75;30.50;;;;;15.19;52.89;101245.63;2088123;28;47562;-60
2022/05/04 04:08:58;;;;;;;;;36.25;32.00;;;;;15.18;52.77;101249.22;2088266;28;47541;-60
2022/05/04 04:09:59;;;;;;;;;44.50;34.50;;;;;15.17;52.90;101250.16;2088446;28;48185;-60
2022/05/04 04:10:59;;;;;;;;;33.75;31.50;;;;;15.16;53.33;101240.38;2088284;28;47556;-61
2022/05/04 04:12:00;;;;;;;;;38.50;31.75;;;;;15.16;52.91;101243.06;2087825;28;48413;-61
2022/05/04 04:13:01;;;;;;;;;35.00;31.25;;;;;15.16;53.34;101245.72;2087663;28;47856;-60
2022/05/04 04:14:02;;;;;;;;;28.80;27.20;;;;;15.15;53.39;101252.88;2094608;28;48106;-60
2022/05/04 04:15:03;;;;;;;;;37.75;33.25;;;;;15.15;53.39;101246.66;2082850;28;46274;-61
2022/05/04 04:16:04;;;;;;;;;35.75;32.25;;;;;15.14;52.93;101244.91;2087195;28;46735;-60
2022/05/04 04:17:04;;;;;;;;;33.75;31.75;;;;;15.13;53.22;101243.16;2086841;28;47445;-60
2022/05/04 04:18:05;;;;;;;;;34.50;29.25;;;;;15.13;53.53;101248.50;2086993;28;48047;-60
2022/05/04 04:19:05;;;;;;;;;39.75;34.00;;;;;15.11;53.08;101243.19;2087069;28;47389;-60
2022/05/04 04:22:44;;;;;;;;;34.40;31.80;;;;;15.13;53.73;101254.75;2093188;28;47471;-59
2022/05/04 04:23:45;;;;;;;;;35.75;31.50;;;;;15.13;53.00;101254.75;2095139;28;47816;-58
2022/05/04 04:24:45;;;;;;;;;38.75;32.50;;;;;15.11;53.20;101253.88;2092047;28;47119;-58
2022/05/04 04:25:46;;;;;;;;;38.25;32.75;;;;;15.11;53.38;101251.22;2095616;28;47973;-58
2022/05/04 04:26:46;;;;;;;;;35.50;30.25;;;;;15.11;53.55;101253.88;2095377;28;47775;-60
2022/05/04 04:27:46;;;;;;;;;32.00;30.50;;;;;15.11;53.32;101247.66;2092530;28;47833;-60
2022/05/04 04:28:47;;;;;;;;;35.75;32.00;;;;;15.13;53.49;101259.22;2095581;28;47596;-60
2022/05/04 04:29:48;;;;;;;;;36.00;31.50;;;;;15.11;53.23;101256.56;2092961;28;47381;-61
2022/05/04 04:30:48;;;;;;;;;34.75;31.50;;;;;15.11;53.46;101251.22;2094788;28;47574;-61
2022/05/04 04:31:48;;;;;;;;;35.75;32.00;;;;;15.09;53.52;101253.06;2087848;28;47583;-61
2022/05/04 04:32:49;;;;;;;;;38.75;32.75;;;;;15.09;53.50;101257.53;2092370;28;47419;-60
2022/05/04 04:33:49;;;;;;;;;37.25;32.75;;;;;15.08;53.64;101253.13;2095358;28;47849;-61
2022/05/04 04:34:49;;;;;;;;;30.75;29.00;;;;;15.08;53.48;101261.13;2092621;28;47872;-60
2022/05/04 04:35:51;;;;;;;;;40.25;32.00;;;;;15.06;53.49;101266.53;2095643;28;47922;-60
2022/05/04 04:36:51;;;;;;;;;38.20;32.60;;;;;15.07;53.62;101264.72;2095118;28;48042;-60
2022/05/04 04:37:52;;;;;;;;;36.75;32.50;;;;;15.05;53.28;101264.78;2092760;28;47229;-58
2022/05/04 04:38:52;;;;;;;;;34.00;31.00;;;;;15.04;53.09;101268.38;2093733;28;47385;-58
2022/05/04 04:39:53;;;;;;;;;33.00;29.50;;;;;15.01;53.39;101260.47;2093023;28;47276;-60
2022/05/04 04:40:54;;;;;;;;;36.00;32.00;;;;;14.99;53.72;101263.19;2089409;28;47690;-61
2022/05/04 04:41:54;;;;;;;;;33.50;29.00;;;;;14.98;53.23;101264.09;2095412;28;47646;-60
2022/05/04 04:42:55;;;;;;;;;32.75;30.50;;;;;14.97;53.26;101264.13;2086878;28;47719;-60
2022/05/04 04:43:56;;;;;;;;;35.00;32.80;;;;;14.98;53.67;101268.56;2087877;28;47880;-61
2022/05/04 04:44:56;;;;;;;;;35.50;30.25;;;;;14.98;53.34;101271.22;2095062;28;48472;-61
2022/05/04 04:45:56;;;;;;;;;36.50;32.75;;;;;14.97;53.37;101262.34;2092426;28;47928;-60
2022/05/04 04:46:57;;;;;;;;;35.00;32.00;;;;;14.97;53.64;101261.47;2088747;28;47521;-60